Time;durP1;ratioP1;P1;durP2;ratioP2;P2;SDS_P1;SDS_P2;PMS_P1;PMS_P2;Temp;Humidity;BMP_temperature;BMP_pressure;BME280_temperature;BME280_humidity;BME280_pressure;Samples;Min_cycle;Max_cycle;Signal;HPM_P1;HPM_P2
2021/07/20 00:02:13;;;;;;;12.63;8.80;;;18.40;85.60;;;;;;5075197;28;20036;-57
2021/07/20 00:04:44;;;;;;;13.73;10.23;;;18.40;85.30;;;;;;5074946;28;20033;-59
2021/07/20 00:07:10;;;;;;;12.13;9.98;;;18.50;85.20;;;;;;5040520;28;20036;-57
2021/07/20 00:09:36;;;;;;;16.63;10.77;;;18.40;85.30;;;;;;5073951;28;20061;-56
2021/07/20 00:12:01;;;;;;;13.82;10.20;;;18.40;85.60;;;;;;5075708;28;20541;-57
2021/07/20 00:14:27;;;;;;;14.73;10.60;;;18.40;85.30;;;;;;5074819;28;20505;-55
2021/07/20 00:16:52;;;;;;;13.65;10.25;;;18.40;85.70;;;;;;5074619;28;20123;-58
2021/07/20 00:19:18;;;;;;;14.45;10.27;;;18.30;86.10;;;;;;5074187;28;20115;-59
2021/07/20 00:21:44;;;;;;;14.57;9.88;;;18.10;87.10;;;;;;5074319;28;20040;-56
2021/07/20 00:24:11;;;;;;;14.82;10.50;;;18.10;87.40;;;;;;5074572;28;20052;-56
2021/07/20 00:26:36;;;;;;;14.35;9.77;;;18.20;86.60;;;;;;5074118;28;20036;-57
2021/07/20 00:29:02;;;;;;;17.83;10.82;;;18.20;87.60;;;;;;5073902;28;20040;-57
2021/07/20 00:31:28;;;;;;;13.57;10.20;;;18.30;86.60;;;;;;5074528;28;20067;-51
2021/07/20 00:33:53;;;;;;;14.73;9.95;;;18.20;87.10;;;;;;5073932;28;20036;-58
2021/07/20 00:36:19;;;;;;;16.23;10.43;;;18.20;87.00;;;;;;5074345;28;20045;-59
2021/07/20 00:38:44;;;;;;;14.25;10.38;;;18.30;86.60;;;;;;5075707;28;20169;-58
2021/07/20 00:41:10;;;;;;;16.17;11.57;;;18.30;87.00;;;;;;5079648;28;20035;-61
2021/07/20 00:43:36;;;;;;;18.20;10.88;;;18.30;87.10;;;;;;5077426;28;20044;-54
2021/07/20 00:46:01;;;;;;;14.95;10.50;;;18.30;87.30;;;;;;5072951;28;20090;-60
2021/07/20 00:48:27;;;;;;;13.93;10.80;;;18.30;87.10;;;;;;5073990;28;20036;-59
2021/07/20 00:50:55;;;;;;;11.82;10.27;;;18.40;86.90;;;;;;5074230;28;20040;-56
2021/07/20 00:53:22;;;;;;;14.13;10.50;;;18.30;87.30;;;;;;5074066;28;20050;-53
2021/07/20 00:55:47;;;;;;;17.85;11.48;;;18.30;87.70;;;;;;5073505;28;20043;-57
2021/07/20 00:58:14;;;;;;;14.70;11.10;;;18.30;87.70;;;;;;5073614;28;20025;-53
2021/07/20 01:00:39;;;;;;;13.73;10.38;;;18.30;87.50;;;;;;5073712;28;20047;-55
2021/07/20 01:03:06;;;;;;;14.10;10.18;;;18.30;87.50;;;;;;5073743;28;20439;-53
2021/07/20 01:05:32;;;;;;;20.08;12.18;;;18.30;87.50;;;;;;5073384;28;20064;-59
2021/07/20 01:07:59;;;;;;;12.02;9.80;;;18.30;87.40;;;;;;5073452;28;20115;-57
2021/07/20 01:10:25;;;;;;;14.05;10.18;;;18.30;87.80;;;;;;5073586;28;20067;-55
2021/07/20 01:12:51;;;;;;;14.45;10.18;;;18.30;87.30;;;;;;5073607;28;20025;-56
2021/07/20 01:15:19;;;;;;;15.40;10.30;;;18.20;88.10;;;;;;5072882;28;20032;-55
2021/07/20 01:17:46;;;;;;;15.57;10.75;;;18.10;88.60;;;;;;5073180;28;20036;-54
2021/07/20 01:20:22;;;;;;;18.35;10.70;;;18.30;87.80;;;;;;5073406;28;20036;-54
2021/07/20 01:23:09;;;;;;;15.68;10.68;;;18.10;88.20;;;;;;5073366;28;20059;-54
2021/07/20 01:25:36;;;;;;;23.60;11.13;;;18.10;88.30;;;;;;5072780;28;20033;-57
2021/07/20 01:28:05;;;;;;;18.15;10.65;;;17.90;89.20;;;;;;5072733;28;20036;-53
2021/07/20 01:30:33;;;;;;;15.43;10.25;;;17.80;89.40;;;;;;5073244;28;20089;-56
2021/07/20 01:33:01;;;;;;;14.05;11.30;;;17.90;89.20;;;;;;5071939;28;20025;-57
2021/07/20 01:35:28;;;;;;;14.00;10.35;;;17.70;89.90;;;;;;5073166;28;20384;-54
2021/07/20 01:37:57;;;;;;;12.88;9.93;;;17.80;89.60;;;;;;5072910;28;20040;-58
2021/07/20 01:40:24;;;;;;;15.73;9.60;;;17.80;89.70;;;;;;5073396;28;20021;-53
2021/07/20 01:42:50;;;;;;;13.95;9.68;;;17.90;89.40;;;;;;5072692;28;20498;-57
2021/07/20 01:45:16;;;;;;;14.15;11.25;;;17.90;89.40;;;;;;5072996;28;20033;-57
2021/07/20 01:47:44;;;;;;;14.50;10.30;;;17.70;89.70;;;;;;5072132;28;20035;-57
2021/07/20 01:50:11;;;;;;;17.55;10.30;;;17.60;90.20;;;;;;5072792;28;20079;-58
2021/07/20 01:52:38;;;;;;;16.90;10.73;;;17.60;90.10;;;;;;5072537;28;20112;-60
2021/07/20 01:55:04;;;;;;;15.73;10.40;;;17.50;90.40;;;;;;5072680;28;20143;-58
2021/07/20 01:57:29;;;;;;;15.35;10.77;;;17.50;90.60;;;;;;5073088;28;20063;-56
2021/07/20 01:59:55;;;;;;;14.48;9.82;;;17.70;90.30;;;;;;5073351;28;20068;-59
2021/07/20 02:02:30;;;;;;;13.70;10.32;;;17.80;90.00;;;;;;5072992;28;20036;-58
2021/07/20 02:08:24;;;;;;;14.60;9.45;;;17.90;90.00;;;;;;5073031;28;20040;-58
2021/07/20 02:11:09;;;;;;;14.90;9.98;;;17.90;89.70;;;;;;5050123;28;20033;-57
2021/07/20 02:13:44;;;;;;;14.93;9.85;;;17.80;90.00;;;;;;5069766;28;20396;-54
2021/07/20 02:16:13;;;;;;;13.75;10.25;;;17.70;90.10;;;;;;5072212;28;20067;-58
2021/07/20 02:18:43;;;;;;;16.65;11.52;;;17.60;90.40;;;;;;5072303;28;20024;-55
2021/07/20 02:21:10;;;;;;;13.38;9.82;;;17.50;90.40;;;;;;5072450;28;20028;-57
2021/07/20 02:23:36;;;;;;;16.25;9.75;;;17.50;90.60;;;;;;5072440;28;20491;-57
2021/07/20 02:26:04;;;;;;;13.85;9.40;;;17.40;90.80;;;;;;5072601;28;20032;-56
2021/07/20 02:28:30;;;;;;;18.02;10.85;;;17.40;90.80;;;;;;5071800;28;20037;-59
2021/07/20 02:30:57;;;;;;;14.43;10.32;;;17.30;91.00;;;;;;5072802;28;20067;-58
2021/07/20 02:33:24;;;;;;;13.55;10.25;;;17.20;91.10;;;;;;5072090;28;20131;-58
2021/07/20 02:35:50;;;;;;;16.10;10.30;;;17.30;90.90;;;;;;5072044;28;20063;-54
2021/07/20 02:38:18;;;;;;;15.13;9.75;;;17.30;90.80;;;;;;5072318;28;20067;-57
2021/07/20 02:40:45;;;;;;;15.43;10.57;;;17.40;90.80;;;;;;5070904;28;20033;-57
2021/07/20 02:43:12;;;;;;;13.77;10.00;;;17.40;90.80;;;;;;5071151;28;20024;-52
2021/07/20 02:45:39;;;;;;;14.38;10.25;;;17.20;91.00;;;;;;5071625;28;20545;-56
2021/07/20 02:48:05;;;;;;;15.82;10.18;;;17.20;91.30;;;;;;5071656;28;20033;-54
2021/07/20 02:50:34;;;;;;;14.23;9.95;;;17.10;91.20;;;;;;5072326;28;20032;-56
2021/07/20 02:53:01;;;;;;;13.43;10.13;;;17.20;91.10;;;;;;5072173;28;20116;-57
2021/07/20 02:55:27;;;;;;;15.15;10.65;;;17.30;91.10;;;;;;5071641;28;20043;-60
2021/07/20 02:57:53;;;;;;;14.25;10.18;;;17.40;90.90;;;;;;5072478;28;20035;-55
2021/07/20 03:00:20;;;;;;;14.30;10.75;;;17.30;90.90;;;;;;5072094;28;20387;-57
2021/07/20 03:02:48;;;;;;;16.83;10.90;;;17.10;91.40;;;;;;5072033;28;20044;-54
2021/07/20 03:05:14;;;;;;;11.20;9.63;;;17.20;91.20;;;;;;5071363;28;20131;-56
2021/07/20 03:07:48;;;;;;;15.23;9.63;;;17.00;91.50;;;;;;5072049;28;20124;-55
2021/07/20 03:10:15;;;;;;;13.93;10.70;;;17.00;91.80;;;;;;5071978;28;20029;-57
2021/07/20 03:12:45;;;;;;;15.00;11.00;;;17.10;91.40;;;;;;5072051;28;20032;-58
2021/07/20 03:15:11;;;;;;;17.17;11.23;;;17.10;91.50;;;;;;5071548;28;20403;-55
2021/07/20 03:17:37;;;;;;;14.20;10.32;;;17.10;91.40;;;;;;5071470;28;20127;-59
2021/07/20 03:20:04;;;;;;;17.75;11.25;;;16.90;91.60;;;;;;5071388;28;20458;-56
2021/07/20 03:22:32;;;;;;;15.38;10.40;;;16.80;91.90;;;;;;5072007;28;20041;-56
2021/07/20 03:25:01;;;;;;;15.02;9.93;;;17.00;91.60;;;;;;5071213;28;20471;-56
2021/07/20 03:27:31;;;;;;;13.27;9.50;;;17.10;91.40;;;;;;5069361;28;20029;-52
2021/07/20 03:29:59;;;;;;;14.48;9.40;;;17.10;91.20;;;;;;5074026;28;20044;-53
2021/07/20 03:32:26;;;;;;;12.00;9.60;;;17.20;91.20;;;;;;5075065;28;20033;-56
2021/07/20 03:34:52;;;;;;;16.67;8.98;;;17.10;91.40;;;;;;5076342;28;20115;-57
2021/07/20 03:37:20;;;;;;;13.40;9.68;;;17.00;91.50;;;;;;5074726;28;20403;-54
2021/07/20 03:39:46;;;;;;;13.85;10.02;;;17.00;91.40;;;;;;5075419;28;20121;-54
2021/07/20 03:42:13;;;;;;;14.13;9.77;;;17.10;91.40;;;;;;5075564;28;20097;-56
2021/07/20 03:44:40;;;;;;;15.20;9.80;;;17.10;91.20;;;;;;5075045;28;20136;-54
2021/07/20 03:47:06;;;;;;;14.13;9.95;;;17.00;91.40;;;;;;5074502;28;20051;-59
2021/07/20 03:49:34;;;;;;;11.35;9.77;;;17.10;91.20;;;;;;5075090;28;20032;-58
2021/07/20 03:52:01;;;;;;;13.52;9.70;;;17.10;91.50;;;;;;5074881;28;20527;-53
2021/07/20 03:54:30;;;;;;;14.98;9.88;;;17.10;91.50;;;;;;5055443;28;20041;-54
2021/07/20 03:56:56;;;;;;;13.48;9.60;;;17.00;91.50;;;;;;5054775;28;20048;-55
2021/07/20 03:59:25;;;;;;;11.63;9.20;;;16.90;91.80;;;;;;5053902;28;20041;-56
2021/07/20 04:01:52;;;;;;;12.93;9.57;;;17.00;91.80;;;;;;5054993;28;20127;-57
2021/07/20 04:04:19;;;;;;;15.00;9.50;;;17.10;91.70;;;;;;5054629;28;20067;-55
2021/07/20 04:06:46;;;;;;;10.50;8.98;;;17.10;91.60;;;;;;5054133;28;20124;-56
2021/07/20 04:09:14;;;;;;;13.10;9.43;;;17.10;91.50;;;;;;5054621;28;20477;-58
2021/07/20 04:11:40;;;;;;;12.68;9.63;;;17.00;91.80;;;;;;5059440;28;20045;-57
2021/07/20 04:14:09;;;;;;;13.68;9.55;;;17.10;91.70;;;;;;5064329;28;20503;-55
2021/07/20 04:16:36;;;;;;;12.60;9.55;;;17.00;92.30;;;;;;5054981;28;20481;-57
2021/07/20 04:19:02;;;;;;;12.43;9.43;;;17.00;91.80;;;;;;5060801;28;20123;-56
2021/07/20 04:21:28;;;;;;;13.38;8.98;;;16.90;92.20;;;;;;5074347;28;20107;-55
2021/07/20 04:23:54;;;;;;;13.32;9.65;;;16.80;92.20;;;;;;5054581;28;20191;-55
2021/07/20 04:26:21;;;;;;;14.85;9.70;;;16.80;92.20;;;;;;5054381;28;20025;-56
2021/07/20 04:28:47;;;;;;;13.82;9.48;;;16.90;92.30;;;;;;5052969;28;20062;-56
2021/07/20 04:31:17;;;;;;;12.15;9.20;;;16.90;92.10;;;;;;5036520;28;20041;-57
2021/07/20 04:33:46;;;;;;;11.68;9.45;;;16.90;92.20;;;;;;5054499;28;20068;-54
2021/07/20 04:36:13;;;;;;;11.70;9.77;;;16.70;92.40;;;;;;5053045;28;20037;-56
2021/07/20 04:38:40;;;;;;;14.48;9.32;;;16.90;92.30;;;;;;5054191;28;20036;-59
2021/07/20 04:41:06;;;;;;;13.25;9.60;;;17.00;92.10;;;;;;5055377;28;20395;-59
2021/07/20 04:43:32;;;;;;;13.93;9.85;;;17.00;92.00;;;;;;5056446;28;20732;-56
2021/07/20 04:46:00;;;;;;;13.63;10.07;;;17.00;92.00;;;;;;5062133;28;20059;-58
2021/07/20 04:48:26;;;;;;;13.38;10.55;;;17.00;92.30;;;;;;5073228;28;20086;-57
2021/07/20 04:50:53;;;;;;;13.50;9.63;;;17.00;92.20;;;;;;5073692;28;20096;-55
2021/07/20 04:53:20;;;;;;;12.32;9.13;;;17.00;92.20;;;;;;5072925;28;20097;-57
2021/07/20 04:55:50;;;;;;;11.93;9.57;;;17.00;92.20;;;;;;5072795;28;20523;-59
2021/07/20 04:58:17;;;;;;;15.63;10.93;;;17.00;92.10;;;;;;5073010;28;20028;-56
2021/07/20 05:00:47;;;;;;;14.27;10.02;;;17.10;92.20;;;;;;5072857;28;20139;-55
2021/07/20 05:03:14;;;;;;;12.10;9.57;;;17.10;92.30;;;;;;5053426;28;20389;-55
2021/07/20 05:05:40;;;;;;;14.40;10.07;;;17.30;91.80;;;;;;5054338;28;20496;-59
2021/07/20 05:08:08;;;;;;;16.48;10.05;;;17.30;91.70;;;;;;5072635;28;20036;-57
2021/07/20 05:10:38;;;;;;;13.80;10.05;;;17.30;91.60;;;;;;5073766;28;20471;-56
2021/07/20 05:13:07;;;;;;;11.20;9.40;;;17.30;91.60;;;;;;5073868;28;20036;-57
2021/07/20 05:15:34;;;;;;;16.58;10.68;;;17.20;91.70;;;;;;5072904;28;20048;-55
2021/07/20 05:18:00;;;;;;;15.05;10.40;;;17.00;92.10;;;;;;5073694;28;20104;-53
2021/07/20 05:20:28;;;;;;;13.20;9.63;;;17.10;92.00;;;;;;5072747;28;20506;-60
2021/07/20 05:22:55;;;;;;;14.43;9.77;;;17.10;91.90;;;;;;5072646;28;20049;-55
2021/07/20 05:25:20;;;;;;;23.13;11.25;;;16.90;92.20;;;;;;5073012;28;20032;-57
2021/07/20 05:27:50;;;;;;;16.70;10.30;;;17.10;92.20;;;;;;5072869;28;20041;-62
2021/07/20 05:30:17;;;;;;;13.00;9.63;;;17.20;92.10;;;;;;5073960;28;20032;-57
2021/07/20 05:32:45;;;;;;;13.63;9.90;;;17.20;91.90;;;;;;5073367;28;20472;-55
2021/07/20 05:35:16;;;;;;;11.73;9.10;;;17.20;91.70;;;;;;5072931;28;20141;-54
2021/07/20 05:37:43;;;;;;;13.95;9.60;;;17.20;91.90;;;;;;5072529;28;20115;-56
2021/07/20 05:40:15;;;;;;;14.23;9.00;;;17.30;91.70;;;;;;5072090;28;20024;-54
2021/07/20 05:42:41;;;;;;;14.15;9.90;;;17.50;91.60;;;;;;5072889;28;20036;-54
2021/07/20 05:45:08;;;;;;;11.40;8.73;;;17.60;91.20;;;;;;5073079;28;20032;-57
2021/07/20 05:47:36;;;;;;;17.17;9.13;;;17.80;91.10;;;;;;5070839;28;20566;-53
2021/07/20 05:50:05;;;;;;;10.70;8.18;;;17.90;90.90;;;;;;5072697;28;20477;-54
2021/07/20 05:52:31;;;;;;;11.70;8.35;;;17.90;90.50;;;;;;5070833;28;20035;-58
2021/07/20 05:54:57;;;;;;;15.48;9.02;;;17.90;90.70;;;;;;5072774;28;20551;-59
2021/07/20 05:57:25;;;;;;;15.65;8.95;;;17.80;90.70;;;;;;5072723;28;20439;-54
2021/07/20 05:59:53;;;;;;;11.75;8.35;;;17.90;90.50;;;;;;5071707;28;20609;-54
2021/07/20 06:02:19;;;;;;;13.30;8.45;;;17.70;90.70;;;;;;5074546;28;20037;-57
2021/07/20 06:04:46;;;;;;;11.95;7.68;;;17.70;90.90;;;;;;5071371;28;20039;-56
2021/07/20 06:07:13;;;;;;;13.60;7.97;;;17.80;90.90;;;;;;5072903;28;20036;-56
2021/07/20 06:09:43;;;;;;;11.35;8.10;;;17.80;90.50;;;;;;5072318;28;20029;-52
2021/07/20 06:12:10;;;;;;;12.98;7.88;;;17.90;90.10;;;;;;5072678;28;20054;-52
2021/07/20 06:14:37;;;;;;;11.80;7.30;;;17.80;90.40;;;;;;5071384;28;20123;-59
2021/07/20 06:17:03;;;;;;;11.15;7.00;;;18.00;90.20;;;;;;5072677;28;20587;-54
2021/07/20 06:19:28;;;;;;;13.98;7.03;;;17.80;89.80;;;;;;5072132;28;20060;-54
2021/07/20 06:21:55;;;;;;;10.73;6.82;;;17.60;90.10;;;;;;5073071;28;20032;-56
2021/07/20 06:24:22;;;;;;;12.02;7.45;;;17.50;90.50;;;;;;5071865;28;20033;-56
2021/07/20 06:26:49;;;;;;;8.98;6.82;;;17.60;90.50;;;;;;5071898;28;20037;-52
2021/07/20 06:29:15;;;;;;;9.43;6.80;;;17.90;89.50;;;;;;5073074;28;20050;-56
2021/07/20 06:31:44;;;;;;;9.13;6.53;;;18.00;89.00;;;;;;5072063;28;20033;-56
2021/07/20 06:34:12;;;;;;;13.13;6.90;;;18.00;88.80;;;;;;5072452;28;20051;-54
2021/07/20 06:36:42;;;;;;;11.88;7.18;;;18.00;89.10;;;;;;5072414;28;20036;-57
2021/07/20 06:39:08;;;;;;;8.32;6.53;;;18.00;88.70;;;;;;5072463;28;20136;-57
2021/07/20 06:41:36;;;;;;;16.75;7.35;;;18.10;88.90;;;;;;5072790;28;20508;-55
2021/07/20 06:44:04;;;;;;;9.55;6.43;;;18.10;89.10;;;;;;5071972;28;20590;-53
2021/07/20 06:46:30;;;;;;;9.73;6.75;;;18.20;87.90;;;;;;5071073;28;20058;-57
2021/07/20 06:48:56;;;;;;;10.52;6.97;;;18.30;87.30;;;;;;5070805;28;20480;-56
2021/07/20 06:51:24;;;;;;;10.25;6.40;;;18.30;88.00;;;;;;5072174;28;20024;-60
2021/07/20 06:53:52;;;;;;;8.23;5.90;;;18.50;86.50;;;;;;5069964;28;20029;-56
2021/07/20 06:56:23;;;;;;;7.50;5.63;;;18.60;85.20;;;;;;5071169;28;20051;-56
2021/07/20 06:58:50;;;;;;;8.30;5.40;;;18.70;84.10;;;;;;5071511;28;20112;-57
2021/07/20 07:01:17;;;;;;;6.60;5.28;;;18.50;83.70;;;;;;5069870;28;20029;-53
2021/07/20 07:03:51;;;;;;;7.75;4.95;;;18.40;83.90;;;;;;5073904;28;20119;-53
2021/07/20 07:06:20;;;;;;;8.45;5.22;;;18.50;83.30;;;;;;5075738;28;20036;-56
2021/07/20 07:08:47;;;;;;;7.32;5.47;;;18.70;82.90;;;;;;5076042;28;20428;-57
2021/07/20 07:11:15;;;;;;;9.65;5.97;;;18.60;82.00;;;;;;5076150;28;20035;-55
2021/07/20 07:13:41;;;;;;;8.68;6.22;;;18.70;82.80;;;;;;5076278;28;20112;-56
2021/07/20 07:16:07;;;;;;;10.25;6.22;;;18.60;83.30;;;;;;5074856;28;20103;-54
2021/07/20 07:18:33;;;;;;;7.93;5.70;;;18.40;83.40;;;;;;5075428;28;20036;-57
2021/07/20 07:21:00;;;;;;;9.23;5.50;;;18.20;83.00;;;;;;5075550;28;20516;-58
2021/07/20 07:23:28;;;;;;;11.45;5.90;;;18.10;83.60;;;;;;5075306;28;20039;-58
2021/07/20 07:25:58;;;;;;;10.75;6.43;;;18.20;83.10;;;;;;5075202;28;20068;-57
2021/07/20 07:28:24;;;;;;;7.78;5.40;;;18.40;83.00;;;;;;5075148;28;20040;-56
2021/07/20 07:30:50;;;;;;;8.85;6.25;;;18.40;82.50;;;;;;5073502;28;20072;-58
2021/07/20 07:33:17;;;;;;;12.15;5.90;;;18.50;83.00;;;;;;5075043;28;20032;-55
2021/07/20 07:35:43;;;;;;;9.55;6.28;;;18.40;82.20;;;;;;5075187;28;20028;-55
2021/07/20 07:38:10;;;;;;;9.02;6.75;;;18.40;82.40;;;;;;5075196;28;20107;-56
2021/07/20 07:40:36;;;;;;;11.07;6.93;;;18.60;82.30;;;;;;5075609;28;20041;-58
2021/07/20 07:43:03;;;;;;;12.15;6.43;;;18.50;82.50;;;;;;5075103;28;20488;-57
2021/07/20 07:45:30;;;;;;;8.75;6.40;;;18.40;81.50;;;;;;5073808;28;20040;-55
2021/07/20 07:47:56;;;;;;;12.02;6.47;;;18.40;80.60;;;;;;5074915;28;20038;-57
2021/07/20 07:50:22;;;;;;;9.50;6.80;;;18.50;80.40;;;;;;5075350;28;20075;-58
2021/07/20 07:52:50;;;;;;;9.13;6.45;;;18.40;80.70;;;;;;5074304;28;20530;-59
2021/07/20 07:55:20;;;;;;;9.80;6.10;;;18.50;80.40;;;;;;5075319;28;20067;-58
2021/07/20 07:57:45;;;;;;;8.20;5.60;;;18.70;79.90;;;;;;5075360;28;20140;-56
2021/07/20 08:00:12;;;;;;;8.55;5.88;;;18.70;79.80;;;;;;5075521;28;20115;-55
2021/07/20 08:02:39;;;;;;;10.35;7.65;;;18.80;80.60;;;;;;5075261;28;20028;-57
2021/07/20 08:05:06;;;;;;;9.50;6.38;;;18.80;79.40;;;;;;5074897;28;20113;-56
2021/07/20 08:07:33;;;;;;;7.65;6.00;;;18.80;79.30;;;;;;5074880;28;20097;-54
2021/07/20 08:10:00;;;;;;;10.93;6.47;;;18.70;79.70;;;;;;5075398;28;20029;-57
2021/07/20 08:12:28;;;;;;;10.60;6.35;;;18.70;81.20;;;;;;5074520;28;20387;-54
2021/07/20 08:14:54;;;;;;;9.68;6.15;;;18.70;81.00;;;;;;5075684;28;20048;-54
2021/07/20 08:17:22;;;;;;;8.82;6.00;;;18.80;80.60;;;;;;5076127;28;20032;-56
2021/07/20 08:19:48;;;;;;;10.98;6.85;;;18.90;79.00;;;;;;5075194;28;20075;-53
2021/07/20 08:22:17;;;;;;;10.80;6.38;;;18.90;79.10;;;;;;5075336;28;20079;-56
2021/07/20 08:25:06;;;;;;;10.43;6.90;;;18.80;78.90;;;;;;5073674;28;20036;-57
2021/07/20 08:28:13;;;;;;;11.23;6.65;;;18.80;79.50;;;;;;5073197;28;20032;-54
2021/07/20 08:30:41;;;;;;;8.57;6.50;;;19.20;78.80;;;;;;5062201;28;20366;-54
2021/07/20 08:33:17;;;;;;;9.50;5.70;;;19.20;78.40;;;;;;5074544;28;20476;-52
2021/07/20 08:35:44;;;;;;;8.90;6.30;;;19.50;77.80;;;;;;5073648;28;20495;-58
2021/07/20 08:38:13;;;;;;;9.73;6.13;;;19.70;77.40;;;;;;5072975;28;20085;-54
2021/07/20 08:41:09;;;;;;;8.80;6.10;;;19.70;77.20;;;;;;5073656;28;20499;-58
2021/07/20 08:43:56;;;;;;;9.25;6.32;;;19.70;77.10;;;;;;5074102;28;20104;-55
2021/07/20 08:46:40;;;;;;;8.80;5.88;;;19.60;76.80;;;;;;5073648;28;20515;-59
2021/07/20 08:49:53;;;;;;;9.18;5.45;;;19.50;77.40;;;;;;5074724;28;20035;-57
2021/07/20 08:52:32;;;;;;;7.82;6.13;;;19.80;76.50;;;;;;5072139;28;20614;-55
2021/07/20 08:55:10;;;;;;;7.80;5.93;;;20.00;76.30;;;;;;5074332;28;20375;-56
2021/07/20 08:58:03;;;;;;;11.68;5.95;;;20.10;75.50;;;;;;5074321;28;20039;-51
2021/07/20 09:00:41;;;;;;;8.75;5.60;;;20.00;76.20;;;;;;5073923;28;20476;-60
2021/07/20 09:03:12;;;;;;;8.10;5.43;;;19.70;76.30;;;;;;5074697;28;20043;-56
2021/07/20 09:06:04;;;;;;;10.30;6.70;;;19.80;76.80;;;;;;5073575;28;20470;-58
2021/07/20 09:08:37;;;;;;;8.52;6.72;;;19.90;76.70;;;;;;5072308;28;20342;-54
2021/07/20 09:11:13;;;;;;;11.02;6.43;;;20.10;76.80;;;;;;5074076;28;20089;-52
2021/07/20 09:13:46;;;;;;;9.07;6.20;;;20.00;76.70;;;;;;5073790;28;20040;-52
2021/07/20 09:16:33;;;;;;;12.27;7.05;;;20.00;75.90;;;;;;5073161;28;20049;-55
2021/07/20 09:19:26;;;;;;;8.82;5.88;;;20.20;74.80;;;;;;5073534;28;20033;-53
2021/07/20 09:21:56;;;;;;;10.35;6.38;;;20.20;74.30;;;;;;5073772;28;20032;-53
2021/07/20 09:24:55;;;;;;;8.77;6.03;;;20.30;75.00;;;;;;5074098;28;20503;-57
2021/07/20 09:27:35;;;;;;;11.00;6.57;;;20.10;75.10;;;;;;5071829;28;20135;-54
2021/07/20 09:30:09;;;;;;;8.40;6.22;;;19.90;76.70;;;;;;5073581;28;20017;-55
2021/07/20 09:33:09;;;;;;;9.50;6.05;;;19.90;76.50;;;;;;5073727;28;20123;-55
2021/07/20 09:36:04;;;;;;;12.05;6.43;;;20.00;75.30;;;;;;5072739;28;20488;-56
2021/07/20 09:38:36;;;;;;;12.93;6.30;;;20.00;76.00;;;;;;5064127;28;20387;-56
2021/07/20 09:41:20;;;;;;;10.18;6.35;;;20.00;75.70;;;;;;5073406;28;20024;-52
2021/07/20 09:43:54;;;;;;;10.52;7.10;;;20.20;75.00;;;;;;5073333;28;20020;-52
2021/07/20 09:46:40;;;;;;;10.98;6.03;;;20.20;74.80;;;;;;5072320;28;20226;-58
2021/07/20 09:49:27;;;;;;;9.75;6.30;;;20.40;73.50;;;;;;5072978;28;20025;-53
2021/07/20 09:52:19;;;;;;;8.40;5.72;;;20.20;74.60;;;;;;5071745;28;20028;-53
2021/07/20 09:54:59;;;;;;;11.57;6.57;;;19.70;75.80;;;;;;5053186;28;20029;-55
2021/07/20 09:57:44;;;;;;;6.97;6.03;;;19.80;76.10;;;;;;5052713;28;20499;-54
2021/07/20 10:00:18;;;;;;;8.38;6.72;;;19.70;75.80;;;;;;5052517;28;20459;-56
2021/07/20 10:02:46;;;;;;;10.15;6.72;;;19.70;75.80;;;;;;5052728;28;20033;-55
2021/07/20 10:05:15;;;;;;;10.48;6.20;;;19.60;75.70;;;;;;5053304;28;20480;-54
2021/07/20 10:07:46;;;;;;;9.38;6.00;;;19.60;75.90;;;;;;5060913;28;20040;-55
2021/07/20 10:10:37;;;;;;;11.50;5.63;;;19.60;76.00;;;;;;5072018;28;20024;-55
2021/07/20 10:13:30;;;;;;;13.10;5.43;;;19.60;75.70;;;;;;5053180;28;20032;-53
2021/07/20 10:16:39;;;;;;;9.23;6.07;;;19.70;75.30;;;;;;5071818;28;20023;-57
2021/07/20 10:19:04;;;;;;;9.07;5.72;;;19.60;75.10;;;;;;5072342;28;20036;-56
2021/07/20 10:21:31;;;;;;;10.23;5.60;;;19.60;75.60;;;;;;5071118;28;20036;-54
2021/07/20 10:24:13;;;;;;;6.75;5.22;;;19.50;76.30;;;;;;5072194;28;20387;-58
2021/07/20 10:26:46;;;;;;;9.73;6.18;;;19.50;76.00;;;;;;5072005;28;20063;-56
2021/07/20 10:30:04;;;;;;;9.10;5.88;;;19.40;76.40;;;;;;5072345;28;20540;-57
2021/07/20 10:32:57;;;;;;;7.05;5.28;;;19.40;75.80;;;;;;5059684;28;20036;-58
2021/07/20 10:35:48;;;;;;;8.25;5.50;;;19.50;74.80;;;;;;5071931;28;20035;-57
2021/07/20 10:38:20;;;;;;;9.40;5.22;;;19.60;75.80;;;;;;5065491;28;20534;-58
2021/07/20 10:40:49;;;;;;;9.63;5.97;;;19.60;75.70;;;;;;5068791;28;20035;-54
2021/07/20 10:43:28;;;;;;;7.90;5.30;;;19.80;75.50;;;;;;5072182;28;20056;-56
2021/07/20 10:45:54;;;;;;;7.10;5.30;;;20.00;74.90;;;;;;5071766;28;20495;-52
2021/07/20 10:48:26;;;;;;;8.55;5.35;;;20.10;74.20;;;;;;5067535;28;20041;-52
2021/07/20 10:51:16;;;;;;;7.38;5.00;;;20.30;74.10;;;;;;5072145;28;20039;-53
2021/07/20 10:54:21;;;;;;;6.97;5.00;;;20.40;73.50;;;;;;5071824;28;20508;-54
2021/07/20 10:57:00;;;;;;;9.73;4.90;;;20.30;73.10;;;;;;5071765;28;20033;-56
2021/07/20 10:59:35;;;;;;;6.97;4.80;;;20.40;73.50;;;;;;5071766;28;20123;-55
2021/07/20 11:02:19;;;;;;;5.38;4.65;;;20.60;72.70;;;;;;5071822;28;20024;-56
2021/07/20 11:04:58;;;;;;;8.13;4.90;;;20.60;72.60;;;;;;5071070;28;20064;-57
2021/07/20 11:07:30;;;;;;;7.93;4.43;;;20.70;72.00;;;;;;5071421;28;20040;-51
2021/07/20 11:10:01;;;;;;;6.85;4.60;;;20.50;70.20;;;;;;5071799;28;20056;-54
2021/07/20 11:12:29;;;;;;;9.30;5.65;;;20.60;70.80;;;;;;5071452;28;20052;-58
2021/07/20 11:14:57;;;;;;;9.02;4.40;;;20.90;70.50;;;;;;5071763;28;20058;-54
2021/07/20 11:17:26;;;;;;;8.75;4.97;;;21.00;70.90;;;;;;5071527;28;20036;-56
2021/07/20 11:19:54;;;;;;;7.43;5.78;;;20.90;69.70;;;;;;5071600;28;20037;-56
2021/07/20 11:22:20;;;;;;;10.32;5.05;;;20.80;69.90;;;;;;5071958;28;20090;-57
2021/07/20 11:24:48;;;;;;;7.65;4.55;;;21.00;70.50;;;;;;5071952;28;20055;-56
2021/07/20 11:27:16;;;;;;;7.55;5.35;;;21.10;69.10;;;;;;5071592;28;20467;-52
2021/07/20 11:29:43;;;;;;;6.18;4.50;;;21.20;68.80;;;;;;5072162;28;20036;-54
2021/07/20 11:32:15;;;;;;;6.05;4.40;;;21.10;69.10;;;;;;5071475;28;20047;-57
2021/07/20 11:34:43;;;;;;;12.95;7.30;;;21.30;67.70;;;;;;5071569;28;20036;-59
2021/07/20 11:37:17;;;;;;;8.95;5.93;;;21.40;67.60;;;;;;5071263;28;20067;-56
2021/07/20 11:39:53;;;;;;;6.63;5.80;;;21.40;67.30;;;;;;5070116;28;20655;-53
2021/07/20 11:42:26;;;;;;;9.00;6.43;;;21.60;66.80;;;;;;5103459;28;20055;-54
2021/07/20 11:45:00;;;;;;;9.60;5.80;;;21.80;66.90;;;;;;5071096;28;20082;-65
2021/07/20 11:47:50;;;;;;;10.00;5.35;;;22.10;65.60;;;;;;5070302;28;20105;-59
2021/07/20 11:50:53;;;;;;;8.48;6.07;;;22.10;65.00;;;;;;5073982;28;20032;-56
2021/07/20 11:53:25;;;;;;;6.85;5.25;;;21.70;64.80;;;;;;5067817;28;20055;-52
2021/07/20 11:55:56;;;;;;;6.80;4.97;;;21.70;65.50;;;;;;5076879;28;20496;-56
2021/07/20 11:58:41;;;;;;;7.03;4.93;;;21.60;66.90;;;;;;5075441;28;20032;-55
2021/07/20 12:01:07;;;;;;;8.32;4.47;;;21.70;65.40;;;;;;5075016;28;20042;-54
2021/07/20 12:03:59;;;;;;;5.53;4.30;;;21.70;65.50;;;;;;5073228;28;20103;-53
2021/07/20 12:06:33;;;;;;;5.05;4.35;;;21.40;65.00;;;;;;5076405;28;20029;-54
2021/07/20 12:09:08;;;;;;;5.32;4.70;;;21.20;66.10;;;;;;5077394;28;20038;-54
2021/07/20 12:11:39;;;;;;;5.40;4.30;;;21.30;65.60;;;;;;5076578;28;20028;-53
2021/07/20 12:14:07;;;;;;;6.50;4.43;;;21.60;65.50;;;;;;5077496;28;20036;-55
2021/07/20 12:16:43;;;;;;;7.43;4.70;;;21.60;64.90;;;;;;5074973;28;20024;-54
2021/07/20 12:19:10;;;;;;;6.90;5.10;;;21.80;64.90;;;;;;5074714;28;20056;-56
2021/07/20 12:21:38;;;;;;;8.82;5.15;;;21.80;64.60;;;;;;5075964;28;20036;-54
2021/07/20 12:24:09;;;;;;;8.52;5.07;;;21.80;62.80;;;;;;5075862;28;20043;-54
2021/07/20 12:26:38;;;;;;;6.82;4.47;;;21.80;62.60;;;;;;5076534;28;20427;-52
2021/07/20 12:29:07;;;;;;;5.95;3.97;;;21.70;63.90;;;;;;5076886;28;20086;-53
2021/07/20 12:31:34;;;;;;;6.78;3.92;;;21.70;63.60;;;;;;5077497;28;20078;-58
2021/07/20 12:34:02;;;;;;;5.32;3.95;;;22.00;64.30;;;;;;5076113;28;20483;-50
2021/07/20 12:36:28;;;;;;;7.07;4.05;;;22.00;62.30;;;;;;5074274;28;20029;-54
2021/07/20 12:39:18;;;;;;;6.47;3.63;;;22.10;63.60;;;;;;5074257;28;20381;-53
2021/07/20 12:41:56;;;;;;;5.60;4.50;;;21.90;63.20;;;;;;5054670;28;20041;-53
2021/07/20 12:44:23;;;;;;;4.65;3.97;;;21.60;63.90;;;;;;5052970;28;20025;-52
2021/07/20 12:46:50;;;;;;;7.75;4.35;;;21.50;64.20;;;;;;5053907;28;20037;-51
2021/07/20 12:49:16;;;;;;;5.80;4.18;;;21.50;64.90;;;;;;5053858;28;20021;-54
2021/07/20 12:51:50;;;;;;;4.97;3.90;;;21.50;64.80;;;;;;5053917;28;20025;-52
2021/07/20 12:54:40;;;;;;;10.57;4.10;;;21.50;65.50;;;;;;5072200;28;20032;-53
2021/07/20 12:57:07;;;;;;;7.13;4.00;;;21.70;64.20;;;;;;5073720;28;20408;-53
2021/07/20 12:59:40;;;;;;;5.53;4.03;;;21.80;64.20;;;;;;5073391;28;20082;-53
2021/07/20 13:02:12;;;;;;;6.68;4.38;;;21.90;64.50;;;;;;5074149;28;20033;-56